createdAt,value
2022-09-13T00:00:00.000Z,81.4
2022-09-13T00:15:00.000Z,81.76
2022-09-13T00:30:00.000Z,82.27
2022-09-13T00:45:00.000Z,82.29
2022-09-13T01:00:00.000Z,81.13
2022-09-13T01:15:00.000Z,80.35
2022-09-13T01:30:00.000Z,80.89
2022-09-13T01:45:00.000Z,79.77
2022-09-13T02:00:00.000Z,79.44
2022-09-13T02:15:00.000Z,80.39
2022-09-13T02:30:00.000Z,78.61
2022-09-13T02:45:00.000Z,78.29
2022-09-13T03:00:00.000Z,77.57
2022-09-13T03:15:00.000Z,77.33
2022-09-13T03:30:00.000Z,77.44
2022-09-13T03:45:00.000Z,76.91
2022-09-13T04:00:00.000Z,76.54
2022-09-13T04:15:00.000Z,77.78
2022-09-13T04:30:00.000Z,80.67
2022-09-13T04:45:00.000Z,81.31
2022-09-13T05:00:00.000Z,80.47
2022-09-13T05:15:00.000Z,77.93
2022-09-13T05:30:00.000Z,75.51
2022-09-13T05:45:00.000Z,71.61
2022-09-13T06:00:00.000Z,69.01
2022-09-13T06:15:00.000Z,67.64
2022-09-13T06:30:00.000Z,65.57
2022-09-13T06:45:00.000Z,64.38
2022-09-13T07:00:00.000Z,61.44
2022-09-13T07:15:00.000Z,51.46
2022-09-13T07:30:00.000Z,46.76
2022-09-13T07:45:00.000Z,45.71
2022-09-13T08:00:00.000Z,42.16
2022-09-13T08:15:00.000Z,40.43
2022-09-13T08:30:00.000Z,39.06
2022-09-13T08:45:00.000Z,37.45
2022-09-13T09:00:00.000Z,36
2022-09-13T09:15:00.000Z,35.68
2022-09-13T09:30:00.000Z,36.18
2022-09-13T09:45:00.000Z,35.58
2022-09-13T10:00:00.000Z,34.83
2022-09-13T10:15:00.000Z,35.26
2022-09-13T10:30:00.000Z,35.83
2022-09-13T10:45:00.000Z,36.7
2022-09-13T11:00:00.000Z,36.99
2022-09-13T11:15:00.000Z,37.97
2022-09-13T11:30:00.000Z,38.79
2022-09-13T11:45:00.000Z,39.24
2022-09-13T12:00:00.000Z,40.04
2022-09-13T12:15:00.000Z,42
2022-09-13T12:30:00.000Z,43.98
2022-09-13T12:45:00.000Z,45.36
2022-09-13T13:00:00.000Z,45.27
2022-09-13T13:15:00.000Z,45.46
2022-09-13T13:30:00.000Z,45.83
2022-09-13T13:45:00.000Z,43.7
2022-09-13T14:00:00.000Z,38.68
2022-09-13T14:15:00.000Z,39.1
2022-09-13T14:30:00.000Z,41.72
2022-09-13T14:45:00.000Z,41.76
2022-09-13T15:00:00.000Z,42.89
2022-09-13T15:15:00.000Z,43.9
2022-09-13T15:30:00.000Z,45.32
2022-09-13T15:45:00.000Z,46.36
2022-09-13T16:00:00.000Z,48.82
2022-09-13T16:15:00.000Z,49.37
2022-09-13T16:30:00.000Z,51.22
2022-09-13T16:45:00.000Z,51.83
2022-09-13T17:00:00.000Z,53.2
2022-09-13T17:15:00.000Z,55.71
2022-09-13T17:30:00.000Z,57.42
2022-09-13T17:45:00.000Z,59.26
2022-09-13T18:00:00.000Z,61.3
2022-09-13T18:15:00.000Z,62.16
2022-09-13T18:30:00.000Z,64.47
2022-09-13T18:45:00.000Z,66.2
2022-09-13T19:00:00.000Z,67.65
2022-09-13T19:15:00.000Z,68.41
2022-09-13T19:30:00.000Z,69.32
2022-09-13T19:45:00.000Z,70.57
2022-09-13T20:15:00.000Z,71.46
2022-09-13T20:15:00.000Z,71.26
2022-09-13T20:30:00.000Z,71.6
2022-09-13T20:45:00.000Z,72.1
2022-09-13T21:00:00.000Z,72.81
2022-09-13T21:15:00.000Z,73.75
2022-09-13T21:30:00.000Z,74.33
2022-09-13T21:45:00.000Z,74.57
2022-09-13T22:00:00.000Z,74.27
2022-09-13T22:15:00.000Z,73.97
2022-09-13T22:30:00.000Z,75.16
2022-09-13T22:45:00.000Z,75.3
2022-09-13T23:00:00.000Z,75.39
2022-09-13T23:15:00.000Z,74.96
2022-09-13T23:30:00.000Z,75.07
2022-09-13T23:45:00.000Z,74.38
